Allardt, Tennessee
Current Conditions -  °F | °C
As of 7:53 AM on Friday 24 Oct 2014 (Local Time) from KCSV Reporting Station
Clear Clear  
Wind Chill: 44°   Ceiling: Unl
Heat Index: 46°   Visibility: 8mi
Dew Point: 42°   Wind: 5mph
Humidity: 86%   Direction: 70°ENE
Pressure: 30.11"   Gusts: NA
Location:  36.38°N, 84.88°W
Report Text: KCSV 241253Z AUTO 07004KT 8SM CLR 08/06 A3011 RMK AO2 SLP193 T00780056
Loading
Personal Weather Stations






























Interactive Weather Map
Tropical Storm Tracking
New forecast layout! Learn more

10-Day Weather Forecast

Advertisements
Track Severe Weather on mobile